イエローナイフ の空港の天気 - METARとTAF

イエローナイフ空港 ( CYZF / YZF ) - カナダ ノースウエスト準州イエローナイフ
飛行場実況気象(Metar)
観測時間07/16 00:00 MDT (07/16 06:00 UTC)
風向・風速東南東 4m/s
視程10km以上
天気現象
全天の4割程度の雲 雲底高度 2130m
全天の4割程度の雲 雲底高度 5490m
気温12℃
湿度82%
気圧1013.2hPa
METARCYZF 160600Z 12008KT 15SM SCT070 SCT180 12/09 A2989 RMK ACC3AC1 SLP132
過去の天気等 Google飛行場航空写真 Wunderground天気予報

過去48時間のMETAR

飛行場予報(TAF)
発表時間: 7/15 23:38 MDT (7/16 05:38 UTC)
予報対象時間: 16日0時 MDT ~ 17日0時 MDT
風向・風速東南東 4m/s
視程10km以上
少しの雲 雲底高度 2130m
全天の4割程度の雲 雲底高度 5490m
16日3時 MDT から
風向・風速南南東 6m/s
視程10km以上
全天の4割程度の雲 雲底高度 1830m
16日3時 MDT ~ 16日9時 MDT に一時的に
全天の8割程度の雲 雲底高度 1830m
16日9時 MDT から
風向・風速南 6m/s
視程10km以上
天気現象弱いしゅう雨
全天の4割程度の雲 雲底高度 1220m
全天の8割程度の雲 雲底高度 1830m
16日12時 MDT ~ 16日14時 MDT に徐々に
風向・風速南 8m/s 瞬間風速 13m/s
TAF CYZF 160538Z 1606/1706 12008KT P6SM FEW070 SCT180
FM160900 15012KT P6SM SCT060
TEMPO 1609/1615 BKN060
FM161500 17012KT P6SM -SHRA SCT040 BKN060
BECMG 1618/1620 17015G25KT RMK NXT FCST BY 161200Z